Time;durP1;ratioP1;P1;durP2;ratioP2;P2;SDS_P1;SDS_P2;PMS_P1;PMS_P2;Temp;Humidity;BMP_temperature;BMP_pressure;BME280_temperature;BME280_humidity;BME280_pressure;Samples;Min_cycle;Max_cycle;Signal;HPM_P1;HPM_P2
2021/09/28 00:05:26;;;;;;;;;;;;;;;21.92;30.97;98222.56;4906816;29;567;-79
2021/09/28 00:07:51;;;;;;;;;;;;;;;21.68;31.02;98232.44;4906902;29;696;-79
2021/09/28 00:10:17;;;;;;;;;;;;;;;21.69;30.81;98237.66;4906286;29;858;-79
2021/09/28 00:12:42;;;;;;;;;;;;;;;21.92;30.83;98236.72;4906334;29;848;-79
2021/09/28 00:15:08;;;;;;;;;;;;;;;21.73;30.89;98226.25;4921512;29;1122;-79
2021/09/28 00:17:34;;;;;;;;;;;;;;;21.98;30.60;98225.66;4906542;29;650;-79
2021/09/28 00:19:59;;;;;;;;;;;;;;;21.94;30.46;98230.59;4921174;29;827;-79
2021/09/28 00:22:25;;;;;;;;;;;;;;;21.78;30.87;98234.22;4906469;29;1972;-79
2021/09/28 00:24:51;;;;;;;;;;;;;;;21.86;30.71;98241.28;4906057;29;936;-79
2021/09/28 00:27:17;;;;;;;;;;;;;;;21.94;30.46;98244.78;4906271;29;802;-79
2021/09/28 00:29:42;;;;;;;;;;;;;;;21.96;30.48;98245.91;4906305;29;999;-79
2021/09/28 00:32:08;;;;;;;;;;;;;;;21.94;30.61;98245.56;4906214;29;695;-79
2021/09/28 00:34:34;;;;;;;;;;;;;;;21.93;30.57;98246.00;4906165;29;759;-79
2021/09/28 00:36:59;;;;;;;;;;;;;;;21.94;30.61;98241.94;4906298;29;680;-79
2021/09/28 00:39:25;;;;;;;;;;;;;;;21.87;30.40;98250.63;4920790;29;936;-79
2021/09/28 00:41:50;;;;;;;;;;;;;;;22.05;30.06;98248.13;4905674;29;1911;-79
2021/09/28 00:44:16;;;;;;;;;;;;;;;21.77;30.71;98250.41;4906093;29;995;-79
2021/09/28 00:46:41;;;;;;;;;;;;;;;21.77;30.54;98250.41;4906060;29;671;-79
2021/09/28 00:49:08;;;;;;;;;;;;;;;21.92;30.29;98258.59;4905937;29;672;-79
2021/09/28 00:51:34;;;;;;;;;;;;;;;21.99;30.27;98262.03;4906019;29;651;-79
2021/09/28 00:53:59;;;;;;;;;;;;;;;21.79;30.39;98252.81;4920600;29;892;-79
2021/09/28 00:56:25;;;;;;;;;;;;;;;21.88;30.43;98264.34;4920582;29;857;-79
2021/09/28 00:58:50;;;;;;;;;;;;;;;21.79;30.29;98259.25;4920820;29;1053;-79
2021/09/28 01:01:16;;;;;;;;;;;;;;;21.94;30.09;98250.44;4905575;29;1903;-79
2021/09/28 01:03:41;;;;;;;;;;;;;;;22.01;30.21;98253.09;4905325;29;700;-79
2021/09/28 01:06:07;;;;;;;;;;;;;;;21.93;30.24;98260.19;4905694;29;700;-79
2021/09/28 01:08:32;;;;;;;;;;;;;;;21.84;30.25;98257.94;4920245;29;979;-79
2021/09/28 01:10:58;;;;;;;;;;;;;;;21.98;30.58;98259.66;4905216;29;946;-79
2021/09/28 01:13:23;;;;;;;;;;;;;;;22.26;31.25;98258.19;4905519;29;1096;-79
2021/09/28 01:15:58;;;;;;;;;;;;;;;22.38;31.52;98259.50;4920541;29;655;-79
2021/09/28 01:18:24;;;;;;;;;;;;;;;22.63;31.90;98254.75;4905417;29;693;-79
2021/09/28 01:20:49;;;;;;;;;;;;;;;22.33;31.61;98258.00;4905307;29;1907;-79
2021/09/28 01:23:15;;;;;;;;;;;;;;;22.16;31.69;98257.19;4905182;29;991;-79
2021/09/28 01:25:40;;;;;;;;;;;;;;;22.09;31.52;98246.03;4904968;29;913;-79
2021/09/28 01:28:07;;;;;;;;;;;;;;;21.84;31.83;98244.56;4905198;29;903;-79
2021/09/28 01:30:33;;;;;;;;;;;;;;;21.91;31.74;98248.47;4905416;29;596;-79
2021/09/28 01:32:58;;;;;;;;;;;;;;;22.02;31.59;98243.34;4905219;29;663;-79
2021/09/28 01:35:23;;;;;;;;;;;;;;;21.91;31.30;98249.28;4905074;29;668;-79
2021/09/28 01:37:49;;;;;;;;;;;;;;;21.88;31.28;98252.22;4904924;29;1074;-79
2021/09/28 01:40:14;;;;;;;;;;;;;;;21.91;31.37;98254.13;4904880;29;901;-79
2021/09/28 01:42:40;;;;;;;;;;;;;;;21.91;31.11;98252.09;4904896;29;1960;-79
2021/09/28 01:45:05;;;;;;;;;;;;;;;21.90;31.33;98252.56;4905457;29;676;-79
2021/09/28 01:47:32;;;;;;;;;;;;;;;21.78;31.32;98251.22;4905039;29;665;-79
2021/09/28 01:49:58;;;;;;;;;;;;;;;21.89;31.06;98256.63;4919744;29;973;-79
2021/09/28 01:52:23;;;;;;;;;;;;;;;21.76;31.38;98259.34;4904683;29;967;-79
2021/09/28 01:54:49;;;;;;;;;;;;;;;21.74;31.28;98262.63;4904650;29;820;-80
2021/09/28 01:57:14;;;;;;;;;;;;;;;21.94;30.82;98265.41;4905143;29;920;-79
2021/09/28 01:59:40;;;;;;;;;;;;;;;21.94;30.62;98258.94;4904949;29;644;-79
2021/09/28 02:02:05;;;;;;;;;;;;;;;21.78;30.80;98257.69;4904795;29;1977;-80
2021/09/28 02:04:31;;;;;;;;;;;;;;;21.82;30.73;98257.59;4904747;29;728;-79
2021/09/28 02:06:56;;;;;;;;;;;;;;;21.88;30.72;98260.72;4904548;29;980;-79
2021/09/28 02:09:21;;;;;;;;;;;;;;;21.97;30.40;98249.56;4904520;29;820;-79
2021/09/28 02:11:47;;;;;;;;;;;;;;;21.93;30.72;98252.47;4904613;29;1078;-79
2021/09/28 02:14:12;;;;;;;;;;;;;;;22.05;30.21;98254.59;4904722;29;1134;-79
2021/09/28 02:16:38;;;;;;;;;;;;;;;21.85;30.85;98257.50;4907341;29;644;-79
2021/09/28 02:19:03;;;;;;;;;;;;;;;21.96;30.48;98245.13;4908939;29;748;-79
2021/09/28 02:21:29;;;;;;;;;;;;;;;21.89;30.41;98256.63;4908840;29;1898;-79
2021/09/28 02:23:54;;;;;;;;;;;;;;;21.93;30.48;98263.00;4908281;29;927;-79
2021/09/28 02:26:19;;;;;;;;;;;;;;;21.79;30.73;98264.13;4908488;29;983;-79
2021/09/28 02:28:45;;;;;;;;;;;;;;;21.79;30.42;98270.59;4908544;29;644;-79
2021/09/28 02:31:10;;;;;;;;;;;;;;;21.89;30.21;98263.09;4908448;29;704;-79
2021/09/28 02:33:36;;;;;;;;;;;;;;;22.03;30.31;98265.59;4908365;29;724;-79
2021/09/28 02:36:01;;;;;;;;;;;;;;;21.94;30.23;98270.28;4908200;29;943;-79
2021/09/28 02:38:27;;;;;;;;;;;;;;;21.89;30.42;98251.75;4922970;29;1238;-79
2021/09/28 02:40:52;;;;;;;;;;;;;;;21.85;30.42;98263.16;4908219;29;1898;-79
2021/09/28 02:43:17;;;;;;;;;;;;;;;21.84;30.51;98261.56;4908746;29;695;-79
2021/09/28 02:45:47;;;;;;;;;;;;;;;21.79;30.61;98259.25;4908223;29;708;-79
2021/09/28 02:48:14;;;;;;;;;;;;;;;21.69;30.64;98263.13;4908121;29;650;-78
2021/09/28 02:50:39;;;;;;;;;;;;;;;21.81;30.49;98256.81;4922945;29;971;-79
2021/09/28 02:53:05;;;;;;;;;;;;;;;21.90;30.17;98266.72;4907696;29;911;-79
2021/09/28 02:55:30;;;;;;;;;;;;;;;21.92;29.94;98259.38;4907950;29;1135;-78
2021/09/28 02:57:56;;;;;;;;;;;;;;;21.85;30.38;98265.19;4908296;29;649;-79
2021/09/28 03:00:21;;;;;;;;;;;;;;;21.82;30.33;98269.72;4908131;29;880;-79
2021/09/28 03:02:47;;;;;;;;;;;;;;;21.85;31.06;98268.81;4922489;29;1883;-79
2021/09/28 03:05:12;;;;;;;;;;;;;;;22.35;31.24;98273.31;4907571;29;958;-79
2021/09/28 03:07:38;;;;;;;;;;;;;;;22.47;31.42;98268.16;4907525;29;961;-79
2021/09/28 03:10:03;;;;;;;;;;;;;;;22.50;31.70;98270.13;4907601;29;1100;-79
2021/09/28 03:12:29;;;;;;;;;;;;;;;22.10;31.85;98267.44;4907809;29;585;-79
2021/09/28 03:14:54;;;;;;;;;;;;;;;22.02;31.62;98268.84;4907521;29;1090;-79
2021/09/28 03:17:19;;;;;;;;;;;;;;;22.00;31.21;98262.84;4907601;29;621;-79
2021/09/28 03:19:45;;;;;;;;;;;;;;;21.99;31.19;98261.25;4907472;29;1090;-79
2021/09/28 03:22:10;;;;;;;;;;;;;;;21.84;31.56;98267.25;4907212;29;1973;-79
2021/09/28 03:24:36;;;;;;;;;;;;;;;21.84;31.59;98263.63;4907424;29;920;-79
2021/09/28 03:27:01;;;;;;;;;;;;;;;21.96;31.17;98265.75;4907306;29;659;-79
2021/09/28 03:29:28;;;;;;;;;;;;;;;21.85;31.05;98268.81;4907420;29;648;-79
2021/09/28 03:31:53;;;;;;;;;;;;;;;21.78;31.28;98269.00;4907607;29;737;-80
2021/09/28 03:34:19;;;;;;;;;;;;;;;21.88;31.27;98274.88;4907086;29;851;-79
2021/09/28 03:36:44;;;;;;;;;;;;;;;21.90;30.88;98280.88;4907028;29;827;-79
2021/09/28 03:39:11;;;;;;;;;;;;;;;21.90;31.06;98286.53;4907465;29;956;-79
2021/09/28 03:41:37;;;;;;;;;;;;;;;21.90;30.79;98286.53;4907218;29;1899;-80
2021/09/28 03:44:02;;;;;;;;;;;;;;;22.00;31.00;98291.16;4907378;29;792;-79
2021/09/28 03:46:28;;;;;;;;;;;;;;;21.85;31.07;98291.50;4907123;29;707;-79
2021/09/28 03:48:53;;;;;;;;;;;;;;;21.84;30.88;98284.22;4906812;29;1048;-79
2021/09/28 03:51:19;;;;;;;;;;;;;;;21.89;30.87;98287.78;4906181;29;1298;-78
2021/09/28 03:53:44;;;;;;;;;;;;;;;21.92;30.54;98289.75;4888104;29;1369;-79
2021/09/28 03:56:09;;;;;;;;;;;;;;;21.95;30.71;98295.31;4888317;29;656;-79
2021/09/28 03:58:35;;;;;;;;;;;;;;;21.88;30.66;98291.88;4888170;29;685;-79
2021/09/28 04:01:00;;;;;;;;;;;;;;;21.87;30.66;98287.44;4888153;29;1911;-78
2021/09/28 04:03:26;;;;;;;;;;;;;;;21.79;30.79;98289.63;4887898;29;916;-79
2021/09/28 04:05:51;;;;;;;;;;;;;;;21.86;30.63;98280.94;4887767;29;854;-79
2021/09/28 04:08:17;;;;;;;;;;;;;;;21.84;30.70;98289.09;4887813;29;1488;-79
2021/09/28 04:10:42;;;;;;;;;;;;;;;21.96;30.27;98290.44;4888137;29;700;-79
2021/09/28 04:13:08;;;;;;;;;;;;;;;21.91;30.15;98290.97;4887932;29;635;-78
2021/09/28 04:15:39;;;;;;;;;;;;;;;21.81;30.25;98290.81;4887878;29;1161;-77
2021/09/28 04:18:08;;;;;;;;;;;;;;;21.84;30.13;98289.91;4888253;29;932;-80
2021/09/28 04:20:36;;;;;;;;;;;;;;;21.78;30.29;98288.03;4887479;29;1902;-79
2021/09/28 04:23:02;;;;;;;;;;;;;;;21.91;30.23;98288.13;4886487;29;1465;-79
2021/09/28 04:25:28;;;;;;;;;;;;;;;21.75;30.23;98286.06;4886695;29;814;-79
2021/09/28 04:27:56;;;;;;;;;;;;;;;21.91;30.16;98288.94;4887804;29;692;-79
2021/09/28 04:30:22;;;;;;;;;;;;;;;21.99;29.94;98283.91;4887657;29;636;-79
2021/09/28 04:32:47;;;;;;;;;;;;;;;21.77;30.13;98284.41;4887249;29;938;-79
2021/09/28 04:35:13;;;;;;;;;;;;;;;21.77;30.42;98277.94;4887388;29;872;-80
2021/09/28 04:37:38;;;;;;;;;;;;;;;21.82;30.12;98281.06;4887123;29;1046;-79
2021/09/28 04:40:04;;;;;;;;;;;;;;;21.77;30.29;98283.63;4887119;29;653;-79
2021/09/28 04:42:29;;;;;;;;;;;;;;;21.66;30.18;98277.38;4887370;29;1964;-80
2021/09/28 04:44:54;;;;;;;;;;;;;;;21.72;30.45;98275.63;4886934;29;1464;-79
2021/09/28 04:47:20;;;;;;;;;;;;;;;21.73;30.17;98278.03;4887060;29;929;-79
2021/09/28 04:49:45;;;;;;;;;;;;;;;21.71;29.92;98286.19;4887112;29;910;-79
2021/09/28 04:52:11;;;;;;;;;;;;;;;21.76;30.20;98277.16;4887177;29;952;-79
2021/09/28 04:54:38;;;;;;;;;;;;;;;21.74;30.03;98279.63;4887164;29;684;-79
2021/09/28 04:57:03;;;;;;;;;;;;;;;21.74;30.08;98276.78;4887752;29;745;-79
2021/09/28 04:59:29;;;;;;;;;;;;;;;21.85;29.77;98280.16;4887226;29;645;-79
2021/09/28 05:01:54;;;;;;;;;;;;;;;21.81;29.87;98289.97;4886669;29;1964;-79
2021/09/28 05:04:19;;;;;;;;;;;;;;;21.84;30.07;98289.91;4886789;29;981;-79
2021/09/28 05:06:45;;;;;;;;;;;;;;;22.01;30.32;98281.41;4886973;29;1420;-79
2021/09/28 05:09:10;;;;;;;;;;;;;;;22.31;30.76;98286.78;4886745;29;1349;-79
2021/09/28 05:11:36;;;;;;;;;;;;;;;22.55;30.80;98292.28;4887032;29;620;-79
2021/09/28 05:14:01;;;;;;;;;;;;;;;22.74;30.83;98288.53;4886775;29;1113;-79
2021/09/28 05:16:27;;;;;;;;;;;;;;;22.39;31.21;98290.25;4886503;29;1046;-79
2021/09/28 05:18:52;;;;;;;;;;;;;;;22.18;31.12;98283.06;4886958;29;963;-79
2021/09/28 05:21:17;;;;;;;;;;;;;;;22.07;30.99;98279.66;4886636;29;1912;-79
2021/09/28 05:23:46;;;;;;;;;;;;;;;22.06;30.86;98278.06;4886795;29;668;-80
2021/09/28 05:26:12;;;;;;;;;;;;;;;22.01;30.93;98287.09;4886833;29;716;-80
2021/09/28 05:28:37;;;;;;;;;;;;;;;21.98;31.02;98282.31;4885558;29;812;-79
2021/09/28 05:31:03;;;;;;;;;;;;;;;21.91;31.37;98288.13;4886246;29;946;-80
2021/09/28 05:33:29;;;;;;;;;;;;;;;21.88;31.11;98287.00;4886383;29;876;-79
2021/09/28 05:35:55;;;;;;;;;;;;;;;21.92;31.06;98293.38;4886479;29;1045;-79
2021/09/28 05:38:21;;;;;;;;;;;;;;;21.95;30.71;98300.19;4885344;29;1414;-79
2021/09/28 05:40:46;;;;;;;;;;;;;;;21.84;30.98;98306.91;4886506;29;1903;-79
2021/09/28 05:43:12;;;;;;;;;;;;;;;21.88;30.84;98306.03;4886413;29;616;-79
2021/09/28 05:45:38;;;;;;;;;;;;;;;21.81;30.95;98313.47;4885510;29;1058;-79
2021/09/28 05:48:03;;;;;;;;;;;;;;;21.90;30.78;98314.88;4886221;29;921;-79
2021/09/28 05:50:29;;;;;;;;;;;;;;;21.99;30.31;98312.25;4886079;29;1361;-79
2021/09/28 05:52:56;;;;;;;;;;;;;;;21.85;30.44;98314.16;4886345;29;596;-79
2021/09/28 05:55:21;;;;;;;;;;;;;;;21.75;30.79;98320.84;4885750;29;691;-79
2021/09/28 05:57:47;;;;;;;;;;;;;;;21.85;30.38;98319.03;4886271;29;712;-79
2021/09/28 06:00:15;;;;;;;;;;;;;;;21.87;30.44;98327.09;4885886;29;1046;-79
2021/09/28 06:02:41;;;;;;;;;;;;;;;21.82;30.56;98328.41;4885946;29;1970;-80
2021/09/28 06:05:07;;;;;;;;;;;;;;;21.82;30.76;98332.03;4886165;29;969;-79
2021/09/28 06:07:32;;;;;;;;;;;;;;;21.75;30.57;98343.50;4885872;29;1381;-79
2021/09/28 06:09:57;;;;;;;;;;;;;;;21.69;30.94;98345.28;4886064;29;1350;-79
2021/09/28 06:12:23;;;;;;;;;;;;;;;21.86;30.59;98337.59;4886090;29;700;-79
2021/09/28 06:14:48;;;;;;;;;;;;;;;21.88;30.36;98340.03;4884912;29;1142;-79
2021/09/28 06:17:14;;;;;;;;;;;;;;;21.78;30.45;98334.16;4885691;29;1342;-79
2021/09/28 06:19:39;;;;;;;;;;;;;;;21.71;30.84;98348.47;4886009;29;858;-79
2021/09/28 06:22:05;;;;;;;;;;;;;;;21.83;30.41;98344.97;4884885;29;1974;-80
2021/09/28 06:24:32;;;;;;;;;;;;;;;21.91;30.54;98339.13;4886073;29;615;-79
2021/09/28 06:26:58;;;;;;;;;;;;;;;21.91;30.27;98344.78;4885351;29;777;-79
2021/09/28 06:29:27;;;;;;;;;;;;;;;21.93;30.36;98345.97;4885293;29;1519;-80
2021/09/28 06:31:52;;;;;;;;;;;;;;;21.96;30.06;98355.59;4885636;29;970;-80
2021/09/28 06:34:18;;;;;;;;;;;;;;;21.72;30.57;98350.06;4886087;29;1014;-79
2021/09/28 06:36:43;;;;;;;;;;;;;;;21.98;30.31;98350.31;4886234;29;632;-79
2021/09/28 06:39:09;;;;;;;;;;;;;;;22.00;30.33;98353.50;4884756;29;1426;-79
2021/09/28 06:41:34;;;;;;;;;;;;;;;21.78;30.43;98353.97;4885709;29;1962;-79
2021/09/28 06:44:00;;;;;;;;;;;;;;;21.85;30.41;98353.03;4884509;29;950;-79
2021/09/28 06:46:25;;;;;;;;;;;;;;;21.76;30.37;98353.63;4885600;29;839;-79
2021/09/28 06:48:52;;;;;;;;;;;;;;;22.19;30.94;98361.19;4885632;29;1354;-79
2021/09/28 06:51:17;;;;;;;;;;;;;;;22.33;31.36;98351.56;4885851;29;664;-79
2021/09/28 06:53:44;;;;;;;;;;;;;;;22.56;31.39;98357.06;4884796;29;793;-79
2021/09/28 06:56:11;;;;;;;;;;;;;;;22.18;31.42;98353.13;4885216;29;661;-79
2021/09/28 06:58:37;;;;;;;;;;;;;;;22.09;31.50;98350.88;4884108;29;1401;-79
2021/09/28 07:01:02;;;;;;;;;;;;;;;22.04;31.10;98349.34;4885362;29;1891;-79
2021/09/28 07:03:28;;;;;;;;;;;;;;;22.09;30.96;98357.34;4889234;29;977;-79
2021/09/28 07:05:53;;;;;;;;;;;;;;;22.04;31.04;98354.22;4889208;29;640;-79
2021/09/28 07:08:19;;;;;;;;;;;;;;;21.99;31.20;98349.06;4889042;29;612;-79
2021/09/28 07:10:44;;;;;;;;;;;;;;;22.05;30.70;98356.59;4889442;29;1396;-79
2021/09/28 07:13:10;;;;;;;;;;;;;;;21.92;31.17;98352.09;4888917;29;939;-79
2021/09/28 07:15:35;;;;;;;;;;;;;;;21.91;31.27;98356.13;4888577;29;1098;-79
2021/09/28 07:18:00;;;;;;;;;;;;;;;21.90;31.11;98357.38;4889033;29;899;-79
2021/09/28 07:20:26;;;;;;;;;;;;;;;21.91;31.04;98356.13;4888662;29;1424;-79
2021/09/28 07:22:51;;;;;;;;;;;;;;;21.84;31.20;98363.56;4887831;29;1980;-80
2021/09/28 07:25:17;;;;;;;;;;;;;;;21.87;31.35;98361.09;4888203;29;708;-79
2021/09/28 07:27:42;;;;;;;;;;;;;;;22.02;30.79;98356.69;4888522;29;932;-79
2021/09/28 07:30:08;;;;;;;;;;;;;;;22.07;30.56;98359.00;4888262;29;1792;-79
2021/09/28 07:32:33;;;;;;;;;;;;;;;21.93;31.08;98345.16;4888628;29;865;-79
2021/09/28 07:34:59;;;;;;;;;;;;;;;21.91;30.92;98356.13;4888635;29;707;-79
2021/09/28 07:37:28;;;;;;;;;;;;;;;22.05;30.73;98361.47;4887671;29;889;-79
2021/09/28 07:39:57;;;;;;;;;;;;;;;21.94;30.78;98366.59;4885874;29;1357;-79
2021/09/28 07:42:22;;;;;;;;;;;;;;;22.06;30.36;98369.53;4896403;29;1903;-79
2021/09/28 07:44:48;;;;;;;;;;;;;;;21.93;30.85;98374.31;4888168;29;936;-79
2021/09/28 07:47:14;;;;;;;;;;;;;;;21.90;30.76;98371.53;4888271;29;1502;-79
2021/09/28 07:49:40;;;;;;;;;;;;;;;21.92;30.88;98364.22;4903116;29;789;-79
2021/09/28 07:52:05;;;;;;;;;;;;;;;21.91;30.70;98370.28;4888320;29;700;-79
2021/09/28 07:54:31;;;;;;;;;;;;;;;21.99;30.83;98372.53;4903164;29;791;-79
2021/09/28 07:56:58;;;;;;;;;;;;;;;21.98;30.73;98373.00;4887951;29;1031;-79
2021/09/28 07:59:24;;;;;;;;;;;;;;;21.93;30.54;98376.34;4887858;29;1428;-79
2021/09/28 08:01:49;;;;;;;;;;;;;;;21.93;30.49;98371.47;4887812;29;1899;-79
2021/09/28 08:04:19;;;;;;;;;;;;;;;21.58;31.33;98373.81;4890087;29;1566;-79
2021/09/28 08:06:45;;;;;;;;;;;;;;;21.95;30.62;98368.97;4888068;29;497;-79
2021/09/28 08:09:10;;;;;;;;;;;;;;;21.93;30.77;98368.63;4888085;29;664;-80
2021/09/28 08:11:36;;;;;;;;;;;;;;;21.95;30.74;98368.97;4887667;29;1314;-79
2021/09/28 08:14:01;;;;;;;;;;;;;;;21.85;30.75;98365.16;4886532;29;999;-79
2021/09/28 08:16:27;;;;;;;;;;;;;;;21.90;30.72;98366.66;4886821;29;1347;-79
2021/09/28 08:18:53;;;;;;;;;;;;;;;21.85;30.83;98365.16;4887822;29;676;-79
2021/09/28 08:21:19;;;;;;;;;;;;;;;22.08;30.43;98363.44;4887505;29;1899;-79
2021/09/28 08:23:44;;;;;;;;;;;;;;;21.93;30.76;98365.00;4887765;29;700;-79
2021/09/28 08:29:09;;;;;;;;;;;;;;;21.90;30.88;98365.88;4887485;29;824;-79
2021/09/28 08:31:38;;;;;;;;;;;;;;;22.02;30.32;98359.50;4886909;29;1384;-79
2021/09/28 08:34:04;;;;;;;;;;;;;;;21.93;30.42;98351.63;4886927;29;1362;-79
2021/09/28 08:36:30;;;;;;;;;;;;;;;21.97;30.50;98348.72;4886581;29;899;-80
2021/09/28 08:38:55;;;;;;;;;;;;;;;22.05;30.55;98338.81;4886840;29;680;-79
2021/09/28 08:41:24;;;;;;;;;;;;;;;22.02;30.74;98345.34;4887476;29;1895;-79
2021/09/28 08:43:49;;;;;;;;;;;;;;;22.00;30.41;98342.16;4886198;29;1403;-79
2021/09/28 08:46:15;;;;;;;;;;;;;;;21.91;30.63;98344.78;4886648;29;931;-79
2021/09/28 08:48:41;;;;;;;;;;;;;;;21.92;30.79;98354.91;4886433;29;832;-79
2021/09/28 08:51:06;;;;;;;;;;;;;;;21.90;30.49;98357.38;4887294;29;716;-79
2021/09/28 08:53:33;;;;;;;;;;;;;;;21.92;30.54;98352.09;4886923;29;1349;-79
2021/09/28 08:55:58;;;;;;;;;;;;;;;21.76;30.87;98356.47;4886380;29;1078;-79
2021/09/28 08:58:24;;;;;;;;;;;;;;;21.85;30.74;98356.66;4886898;29;830;-79
2021/09/28 09:00:50;;;;;;;;;;;;;;;21.82;30.58;98356.75;4887277;29;1899;-79
2021/09/28 09:03:32;;;;;;;;;;;;;;;21.84;30.58;98357.88;4886551;29;643;-79
2021/09/28 09:05:58;;;;;;;;;;;;;;;21.78;30.68;98362.47;4886630;29;1321;-80
2021/09/28 09:08:25;;;;;;;;;;;;;;;21.88;30.49;98351.34;4885893;29;1371;-80
2021/09/28 09:11:06;;;;;;;;;;;;;;;21.99;30.26;98349.06;4886692;29;973;-79
2021/09/28 09:13:35;;;;;;;;;;;;;;;21.98;30.28;98345.44;4886395;29;1381;-79
2021/09/28 09:16:01;;;;;;;;;;;;;;;21.93;30.57;98359.34;4886874;29;945;-79
2021/09/28 09:18:26;;;;;;;;;;;;;;;22.02;30.48;98348.19;4886822;29;640;-79
2021/09/28 09:20:51;;;;;;;;;;;;;;;22.00;30.21;98359.16;4886836;29;1922;-79
2021/09/28 09:23:35;;;;;;;;;;;;;;;21.88;30.52;98366.31;4886454;29;1393;-79
2021/09/28 09:26:00;;;;;;;;;;;;;;;22.00;30.32;98359.16;4885465;29;1390;-80
2021/09/28 09:28:33;;;;;;;;;;;;;;;21.92;30.44;98374.75;4886303;29;923;-79
2021/09/28 09:31:14;;;;;;;;;;;;;;;21.92;30.58;98375.53;4886026;29;692;-80
2021/09/28 09:33:40;;;;;;;;;;;;;;;21.93;30.64;98367.84;4886305;29;1405;-79
2021/09/28 09:36:05;;;;;;;;;;;;;;;22.00;30.45;98376.16;4886597;29;628;-79
2021/09/28 09:38:31;;;;;;;;;;;;;;;22.11;30.31;98371.09;4886585;29;643;-79
2021/09/28 09:40:56;;;;;;;;;;;;;;;22.02;30.37;98374.50;4885223;29;1907;-78
2021/09/28 09:43:29;;;;;;;;;;;;;;;21.84;30.75;98369.22;4885299;29;1255;-78
2021/09/28 09:46:06;;;;;;;;;;;;;;;21.82;30.82;98377.38;4884728;29;1370;-78
2021/09/28 09:48:34;;;;;;;;;;;;;;;21.76;30.87;98373.47;4890557;29;1321;-78
2021/09/28 09:51:03;;;;;;;;;;;;;;;21.85;30.77;98370.00;4886272;29;1427;-78
2021/09/28 09:53:29;;;;;;;;;;;;;;;21.83;30.48;98378.97;4885697;29;1139;-78
2021/09/28 09:55:54;;;;;;;;;;;;;;;21.91;30.82;98373.91;4888512;29;1664;-79
2021/09/28 09:58:20;;;;;;;;;;;;;;;21.97;30.42;98371.41;4885910;29;1563;-79
2021/09/28 10:00:48;;;;;;;;;;;;;;;21.93;30.40;98370.66;4885812;29;1981;-79
2021/09/28 10:03:14;;;;;;;;;;;;;;;21.92;30.55;98377.56;4885600;29;748;-79
2021/09/28 10:05:39;;;;;;;;;;;;;;;21.97;30.36;98382.72;4886056;29;1381;-79
2021/09/28 10:08:08;;;;;;;;;;;;;;;22.03;30.30;98387.44;4885355;29;1339;-79
2021/09/28 10:10:34;;;;;;;;;;;;;;;22.03;30.36;98392.31;4885261;29;1005;-79
2021/09/28 10:12:59;;;;;;;;;;;;;;;21.90;30.49;98394.19;4885971;29;912;-79
2021/09/28 10:15:25;;;;;;;;;;;;;;;21.82;30.81;98393.56;4892384;29;1407;-79
2021/09/28 10:17:50;;;;;;;;;;;;;;;21.79;30.74;98383.91;4884899;29;1730;-80
2021/09/28 10:20:22;;;;;;;;;;;;;;;21.73;30.92;98399.81;4891330;29;1252;-79
2021/09/28 10:22:58;;;;;;;;;;;;;;;21.93;30.58;98396.16;5064039;23;3410;-79
2021/09/28 10:25:42;;;;;;;;;;;;;;;22.60;31.57;98391.00;4904560;29;1087;-80
2021/09/28 10:28:14;;;;;;;;;;;;;;;22.71;31.79;98380.19;4887820;29;1474;-80
2021/09/28 10:30:39;;;;;;;;;;;;;;;22.27;32.15;98385.28;4885875;29;1597;-80
2021/09/28 10:33:11;;;;;;;;;;;;;;;22.04;31.94;98383.34;4886267;29;699;-80
2021/09/28 10:35:59;;;;;;;;;;;;;;;21.99;31.86;98380.25;4873472;29;1506;-79
2021/09/28 10:38:40;;;;;;;;;;;;;;;21.99;31.00;98386.72;4888024;29;1308;-80
2021/09/28 10:41:31;;;;;;;;;;;;;;;21.95;31.14;98385.19;4888301;29;1907;-79
2021/09/28 10:44:36;;;;;;;;;;;;;;;21.79;31.18;98388.75;4870101;29;1115;-79
2021/09/28 10:47:28;;;;;;;;;;;;;;;21.65;31.42;98395.50;4870733;29;1095;-79
2021/09/28 10:50:20;;;;;;;;;;;;;;;21.85;30.97;98396.31;4884667;29;1151;-79
2021/09/28 10:52:53;;;;;;;;;;;;;;;21.69;31.11;98396.25;4871008;29;1318;-79
2021/09/28 10:55:41;;;;;;;;;;;;;;;21.81;30.75;98392.78;4873463;29;1000;-80
2021/09/28 10:58:22;;;;;;;;;;;;;;;21.84;31.05;98394.72;4888312;29;882;-80
2021/09/28 11:00:54;;;;;;;;;;;;;;;22.22;31.13;98394.31;4888786;29;1910;-79
2021/09/28 11:03:48;;;;;;;;;;;;;;;22.34;31.20;98395.69;4889588;29;655;-79
2021/09/28 11:06:39;;;;;;;;;;;;;;;22.40;31.33;98398.78;4889227;29;1431;-80
2021/09/28 11:09:12;;;;;;;;;;;;;;;22.08;31.11;98394.63;4889183;29;1498;-79
2021/09/28 11:11:39;;;;;;;;;;;;;;;22.02;30.79;98390.69;4889162;29;1011;-79
2021/09/28 11:14:24;;;;;;;;;;;;;;;22.29;31.96;98399.03;4921659;23;3745;-79
2021/09/28 11:16:56;;;;;;;;;;;;;;;22.54;32.32;98404.13;4901033;29;940;-79
2021/09/28 11:19:32;;;;;;;;;;;;;;;22.29;32.15;98402.66;4888024;29;982;-79
2021/09/28 11:22:05;;;;;;;;;;;;;;;22.11;32.08;98410.75;4902163;29;1982;-79
2021/09/28 11:24:37;;;;;;;;;;;;;;;21.97;31.60;98405.41;4888109;29;655;-79
2021/09/28 11:27:10;;;;;;;;;;;;;;;21.92;31.46;98400.25;4902240;29;758;-79
2021/09/28 11:29:42;;;;;;;;;;;;;;;21.79;31.31;98400.88;4874992;29;1463;-79
2021/09/28 11:32:15;;;;;;;;;;;;;;;21.80;30.72;98401.69;4867361;29;1176;-78
2021/09/28 11:34:46;;;;;;;;;;;;;;;21.67;30.85;98404.41;4868179;29;1239;-78
2021/09/28 11:37:12;;;;;;;;;;;;;;;21.75;30.64;98405.03;4868051;29;1190;-79
2021/09/28 11:39:43;;;;;;;;;;;;;;;21.71;30.44;98407.97;4867987;29;1233;-79
2021/09/28 11:42:15;;;;;;;;;;;;;;;21.66;30.19;98402.81;4868026;29;1977;-78
2021/09/28 11:44:49;;;;;;;;;;;;;;;21.79;30.11;98400.09;4867486;29;1118;-79
2021/09/28 11:47:22;;;;;;;;;;;;;;;21.78;29.87;98404.97;4867028;29;1314;-79
2021/09/28 11:49:57;;;;;;;;;;;;;;;21.80;29.66;98402.47;4868801;29;1161;-79
2021/09/28 11:52:28;;;;;;;;;;;;;;;21.68;29.64;98410.84;4869062;29;605;-79
2021/09/28 11:55:00;;;;;;;;;;;;;;;21.69;29.50;98407.56;4868708;29;1538;-79
2021/09/28 11:57:32;;;;;;;;;;;;;;;21.80;29.44;98413.81;4868925;29;687;-79
2021/09/28 12:00:05;;;;;;;;;;;;;;;21.69;29.45;98410.41;4868067;29;882;-79
2021/09/28 12:02:37;;;;;;;;;;;;;;;21.64;30.08;98413.75;4868454;29;1919;-84
2021/09/28 12:05:35;;;;;;;;;;;;;;;22.26;29.69;98423.38;4867364;29;1506;-78
2021/09/28 12:08:12;;;;;;;;;;;;;;;22.49;29.96;98410.31;4872797;29;1526;-79
2021/09/28 12:10:44;;;;;;;;;;;;;;;22.21;30.39;98414.59;4867103;29;1315;-79
2021/09/28 12:13:23;;;;;;;;;;;;;;;22.01;30.35;98411.75;4589492;29;8258778;-79
2021/09/28 12:15:58;;;;;;;;;;;;;;;21.83;30.77;98407.28;4867856;29;1043;-78
2021/09/28 12:18:30;;;;;;;;;;;;;;;21.93;30.87;98407.50;4867656;29;1253;-78
2021/09/28 12:21:09;;;;;;;;;;;;;;;21.81;30.79;98418.25;4867898;29;1907;-79
2021/09/28 12:23:41;;;;;;;;;;;;;;;21.73;31.16;98411.13;4866824;29;1360;-79
2021/09/28 12:26:26;;;;;;;;;;;;;;;21.92;30.36;98409.53;4868055;29;1600;-79
2021/09/28 12:28:58;;;;;;;;;;;;;;;21.94;30.62;98400.59;4867251;29;1291;-79
2021/09/28 12:31:31;;;;;;;;;;;;;;;21.92;30.83;98408.75;4866867;29;1280;-78
2021/09/28 12:34:02;;;;;;;;;;;;;;;21.86;30.52;98411.25;4867558;29;1253;-78
2021/09/28 12:36:28;;;;;;;;;;;;;;;21.75;30.74;98416.34;4867804;29;1178;-78
2021/09/28 12:39:32;;;;;;;;;;;;;;;21.89;30.76;98409.59;4867328;29;1074;-78
2021/09/28 12:42:07;;;;;;;;;;;;;;;21.76;30.51;98412.28;4858500;29;1895;-78
2021/09/28 12:44:39;;;;;;;;;;;;;;;21.88;30.80;98405.97;4867656;29;1504;-78
2021/09/28 12:47:21;;;;;;;;;;;;;;;22.00;30.44;98401.66;4867596;29;1288;-79
2021/09/28 12:49:52;;;;;;;;;;;;;;;21.91;30.44;98399.41;4867243;29;1082;-79
2021/09/28 12:52:24;;;;;;;;;;;;;;;21.94;30.23;98400.59;4867548;29;1122;-78
2021/09/28 12:54:56;;;;;;;;;;;;;;;21.91;30.49;98396.59;4866403;29;1219;-78
2021/09/28 12:57:28;;;;;;;;;;;;;;;21.82;30.26;98400.03;4867426;29;1256;-77
2021/09/28 13:00:00;;;;;;;;;;;;;;;21.78;30.73;98399.31;4866733;29;1369;-79
2021/09/28 13:02:33;;;;;;;;;;;;;;;21.98;30.34;98392.81;4867003;29;1982;-79
2021/09/28 13:05:07;;;;;;;;;;;;;;;21.85;30.47;98410.47;4866342;29;1182;-79
2021/09/28 13:07:32;;;;;;;;;;;;;;;21.96;30.33;98409.44;4867473;29;1184;-78
2021/09/28 13:10:05;;;;;;;;;;;;;;;21.97;30.12;98405.41;4867351;29;1117;-79
2021/09/28 13:12:36;;;;;;;;;;;;;;;21.82;30.52;98408.53;4866289;29;993;-79
2021/09/28 13:15:19;;;;;;;;;;;;;;;22.20;30.66;98419.47;4867568;29;1075;-78